Portada
METAR-TAF:

METAR-TAF

Aeroports :

Leeming, Anglaterra

latitud: 54-18N, longitud: 001-32W, altitud: 40 m

Observació

L'informe es va fer fa 37 minuts, a les 16:50 UTC
Vent 12 kt del Sud/Sud-Oest
Temperatura 9°C
Humitat 87%
Pressió 1004 hPa
Visibilitat 10 km o més

METAR: EGXE 071650Z AUTO 20012KT 9999 FEW025/// BKN070/// 09/07 Q1004 RERA

Hora: 17:27 (17:27 UTC)

Pronòstic

L'informe es va fer fa 27 hores i 36 minuts, a les 13:51 UTC
Pronòstic vàlid del 06 a les 15 UTC al 06 a les 18 UTC
Vent 14 kt del Oest
Visibilitat 10 km o més
Escasses núvols a una alçada de 2000 ft
Temporalment
l' 06 a les 15 UTC al 06 a les 18 UTC
Núvols disperses a una alçada de 2000 ft
Probabilitat 30% :
Temporalment
l' 06 a les 15 UTC al 06 a les 18 UTC
Vent 15 kt del Oest amb ràfegues de 27 kt
Visibilitat: 6000 m
Núvols disperses a una alçada de 2000 ft, Cumulus congestus.
xàfecs de pluja

TAF: EGXE 061351Z 0615/0618 27014KT 9999 FEW020 TEMPO 0615/0618 SCT020 PROB30 TEMPO 0615/0618 28015G27KT 6000 SHRA SCT020TCU

Observacions i pronòstics meteorològics de més de 4000 aeroports (METAR i TAF).

Les estacions disponibles són els punts grocs i vermells al mapa.

Posi el ratolí al punt desitjat per veure el nom de l'estació.

Feu clic per veure les observacions i els pronòstics meteorològics.

Per canviar el mapa: feu clic els botons verds amb una creu de color negre per apropar; al botó verd amb un guió per allunyar la imatge; o en les fletxes verdes per a mapes adjacents.


METAR-TAF: